Time;durP1;ratioP1;P1;durP2;ratioP2;P2;SDS_P1;SDS_P2;PMS_P1;PMS_P2;Temp;Humidity;BMP_temperature;BMP_pressure;BME280_temperature;BME280_humidity;BME280_pressure;Samples;Min_cycle;Max_cycle;Signal;HPM_P1;HPM_P2
2020/12/11 00:00:00;;;;;;;45.72;28.00;;;;;;;-0.06;90.23;100138.47;5063716;28;20037;-70
2020/12/11 00:02:25;;;;;;;46.15;27.17;;;;;;;-0.07;89.77;100129.72;5061454;28;20032;-70
2020/12/11 00:04:50;;;;;;;45.63;27.77;;;;;;;-0.06;89.67;100128.78;5063275;28;20045;-70
2020/12/11 00:07:16;;;;;;;50.05;28.30;;;;;;;-0.15;90.42;100132.03;5062922;28;20036;-70
2020/12/11 00:09:41;;;;;;;46.10;26.80;;;;;;;-0.24;89.91;100098.56;5061350;28;20024;-70
2020/12/11 00:12:07;;;;;;;47.75;26.98;;;;;;;-0.06;89.86;100126.16;5061691;28;20037;-69
2020/12/11 00:14:32;;;;;;;46.00;27.83;;;;;;;-0.04;90.00;100121.66;5045592;28;20045;-71
2020/12/11 00:16:58;;;;;;;42.70;26.63;;;;;;;-0.02;89.83;100119.78;5063719;28;20325;-70
2020/12/11 00:19:23;;;;;;;47.65;27.35;;;;;;;-0.73;89.95;100011.72;5063497;28;20613;-71
2020/12/11 00:21:49;;;;;;;43.38;26.65;;;;;;;-0.08;89.80;100114.13;5061574;28;20082;-69
2020/12/11 00:24:14;;;;;;;48.20;27.20;;;;;;;-0.07;90.01;100106.13;5074098;28;20229;-70
2020/12/11 00:26:40;;;;;;;52.42;27.58;;;;;;;-0.08;90.27;100101.84;5054259;28;20088;-70
2020/12/11 00:29:05;;;;;;;48.67;27.02;;;;;;;-0.05;89.94;100098.19;5056703;28;20105;-72
2020/12/11 00:31:31;;;;;;;43.38;26.15;;;;;;;-0.66;90.00;99994.66;5061270;28;20032;-70
2020/12/11 00:33:59;;;;;;;47.60;27.88;;;;;;;-0.10;90.42;100087.13;5063277;28;20032;-69
2020/12/11 00:36:25;;;;;;;;;;;;;;;-0.06;90.31;100081.56;5067590;28;20034;-69
2020/12/11 00:38:51;;;;;;;45.80;25.55;;;;;;;-0.01;89.52;100078.66;5069388;28;20023;-70
2020/12/11 00:41:17;;;;;;;44.75;24.98;;;;;;;-0.02;89.92;100083.06;5066435;28;21757;-70
2020/12/11 00:43:42;;;;;;;43.20;26.67;;;;;;;0.00;89.45;100077.72;5064066;28;20521;-71
2020/12/11 00:46:08;;;;;;;43.60;25.08;;;;;;;0.03;89.14;100077.50;5067338;28;20457;-71
2020/12/11 00:48:33;;;;;;;43.92;26.33;;;;;;;-0.10;89.62;100059.13;5067303;28;20506;-69
2020/12/11 00:50:59;;;;;;;42.55;26.08;;;;;;;0.04;88.68;100065.25;5062039;28;20037;-70
2020/12/11 00:53:24;;;;;;;42.15;26.10;;;;;;;0.08;89.11;100053.56;5064707;28;20132;-70
2020/12/11 00:55:50;;;;;;;40.63;24.50;;;;;;;0.08;89.02;100046.56;5065327;28;20036;-69
2020/12/11 00:58:15;;;;;;;45.40;26.80;;;;;;;0.11;89.00;100048.13;5066430;28;21443;-69
2020/12/11 01:00:41;;;;;;;40.38;24.92;;;;;;;0.14;88.56;100037.41;5063795;28;20043;-70
2020/12/11 01:03:06;;;;;;;44.00;25.33;;;;;;;0.13;88.09;100041.84;5042962;28;20039;-69
2020/12/11 01:05:32;;;;;;;42.15;25.55;;;;;;;0.05;88.89;100031.00;5067769;28;20399;-69
2020/12/11 01:07:58;;;;;;;45.67;25.90;;;;;;;0.05;88.74;100025.78;5065509;28;20064;-69
2020/12/11 01:10:23;;;;;;;44.55;25.15;;;;;;;0.08;88.50;100015.06;5050126;28;20051;-71
2020/12/11 01:12:49;;;;;;;39.55;24.95;;;;;;;0.09;88.76;100019.38;5064082;28;20043;-71
2020/12/11 01:15:14;;;;;;;42.40;25.30;;;;;;;0.11;88.67;100009.63;5064280;28;20044;-71
2020/12/11 01:17:40;;;;;;;40.70;25.35;;;;;;;0.06;88.24;99987.28;5065371;28;20037;-69
2020/12/11 01:20:05;;;;;;;42.35;25.63;;;;;;;0.12;88.17;99992.06;5059036;28;20334;-70
2020/12/11 01:22:31;;;;;;;40.90;26.13;;;;;;;-0.11;88.21;99952.53;5063062;28;20116;-70
2020/12/11 01:24:57;;;;;;;42.95;25.65;;;;;;;0.08;88.16;99974.84;5062651;28;20582;-71
2020/12/11 01:27:23;;;;;;;44.33;26.50;;;;;;;0.09;88.42;99963.41;5064447;28;20587;-72
2020/12/11 01:29:49;;;;;;;42.47;25.63;;;;;;;0.12;88.21;99961.44;5065404;28;20052;-72
2020/12/11 01:32:14;;;;;;;45.90;28.27;;;;;;;-0.11;88.37;99926.31;5063233;28;20536;-70
2020/12/11 01:34:40;;;;;;;44.88;27.05;;;;;;;-0.13;88.14;99917.72;5045047;28;20392;-70
2020/12/11 01:37:05;;;;;;;41.72;26.38;;;;;;;0.05;88.49;99956.72;5041637;28;20138;-70
2020/12/11 01:39:31;;;;;;;44.03;26.95;;;;;;;-0.03;88.32;99946.78;5064628;28;20043;-70
2020/12/11 01:41:57;;;;;;;44.55;26.55;;;;;;;0.02;88.52;99941.19;5060895;28;20025;-71
2020/12/11 01:44:22;;;;;;;45.65;27.92;;;;;;;-0.06;88.45;99934.69;5063880;28;20047;-71
2020/12/11 01:46:48;;;;;;;45.75;26.85;;;;;;;-0.24;88.64;99902.72;5062272;28;20029;-72
2020/12/11 01:49:14;;;;;;;39.63;25.40;;;;;;;-0.05;88.79;99917.19;5063790;28;20417;-70
2020/12/11 01:51:39;;;;;;;42.95;27.05;;;;;;;-0.30;88.44;99887.44;5078996;28;20090;-70
2020/12/11 01:54:05;;;;;;;43.75;26.17;;;;;;;-0.24;88.44;99891.41;5060483;28;20040;-69
2020/12/11 01:56:32;;;;;;;43.35;27.00;;;;;;;-0.14;88.73;99920.47;5048606;28;20034;-69
2020/12/11 01:59:04;;;;;;;45.13;27.23;;;;;;;-0.48;88.94;99866.78;5063601;28;20491;-70
2020/12/11 02:01:30;;;;;;;42.45;26.70;;;;;;;-0.38;88.82;99887.97;5034070;28;20043;-69
2020/12/11 02:03:56;;;;;;;45.00;26.27;;;;;;;-0.29;89.24;99904.84;5062028;28;20036;-69
2020/12/11 02:06:21;;;;;;;42.40;25.58;;;;;;;-0.37;88.72;99888.78;5064793;28;20043;-69
2020/12/11 02:08:47;;;;;;;42.30;26.02;;;;;;;-0.43;88.78;99870.88;5030787;28;20064;-69
2020/12/11 02:11:19;;;;;;;41.97;24.98;;;;;;;-0.26;88.84;99912.47;5062141;28;20522;-70
2020/12/11 02:13:45;;;;;;;40.88;27.33;;;;;;;-0.25;88.28;99919.41;5061759;28;20115;-69
2020/12/11 02:16:10;;;;;;;38.85;24.60;;;;;;;-0.31;88.39;99915.41;5060511;28;20053;-69
2020/12/11 02:18:36;;;;;;;41.85;25.60;;;;;;;-0.28;88.56;99927.50;5063105;28;20051;-69
2020/12/11 02:21:01;;;;;;;45.20;26.60;;;;;;;-0.27;88.75;99920.44;5061222;28;20048;-69
2020/12/11 02:23:27;;;;;;;37.60;24.60;;;;;;;-0.35;88.67;99916.59;5063167;28;20062;-69
2020/12/11 02:25:52;;;;;;;42.33;26.25;;;;;;;-0.38;88.98;99914.16;5043854;28;610926;-70
2020/12/11 02:28:18;;;;;;;39.05;25.50;;;;;;;-0.37;88.39;99921.09;5066790;28;20051;-69
2020/12/11 02:30:43;;;;;;;41.28;25.98;;;;;;;-0.45;89.11;99920.75;5064138;28;20041;-70
2020/12/11 02:33:09;;;;;;;38.55;24.95;;;;;;;-0.42;89.37;99924.97;5062982;28;20032;-69
2020/12/11 02:35:34;;;;;;;42.83;26.73;;;;;;;-0.45;88.79;99918.16;5064675;28;20043;-69
2020/12/11 02:38:00;;;;;;;40.95;26.30;;;;;;;-0.48;89.02;99910.50;5065935;28;20102;-70
2020/12/11 02:40:25;;;;;;;41.92;25.85;;;;;;;-0.48;89.29;99911.34;5065925;28;20498;-69
2020/12/11 02:42:51;;;;;;;41.35;25.23;;;;;;;-0.45;89.35;99891.09;5062454;28;20051;-70
2020/12/11 02:45:17;;;;;;;44.97;25.83;;;;;;;-0.63;88.63;99867.81;5062742;28;20032;-71
2020/12/11 02:47:42;;;;;;;41.95;26.25;;;;;;;-0.57;88.85;99887.53;5062872;28;20020;-70
2020/12/11 02:50:08;;;;;;;40.40;26.88;;;;;;;-0.60;89.62;99882.50;5045236;28;20625;-71
2020/12/11 02:52:33;;;;;;;39.53;25.27;;;;;;;-0.59;89.36;99868.44;5062469;28;20048;-70
2020/12/11 02:54:59;;;;;;;40.13;26.42;;;;;;;-0.77;89.47;99846.03;5064617;28;20518;-70
2020/12/11 02:57:24;;;;;;;41.13;26.23;;;;;;;-0.55;89.44;99864.69;5062594;28;20037;-70
2020/12/11 02:59:50;;;;;;;37.85;25.55;;;;;;;-0.54;89.42;99869.81;5064832;28;20044;-70
2020/12/11 03:02:15;;;;;;;36.85;24.95;;;;;;;-0.54;89.02;99874.22;5064383;28;20542;-70
2020/12/11 03:04:41;;;;;;;38.05;25.95;;;;;;;-0.51;88.99;99859.13;5062292;28;20497;-70
2020/12/11 03:07:06;;;;;;;39.88;24.73;;;;;;;-0.49;88.32;99864.28;5060997;28;20449;-69
2020/12/11 03:09:32;;;;;;;40.42;26.35;;;;;;;-0.53;89.14;99866.25;5065223;28;20029;-70
2020/12/11 03:11:57;;;;;;;37.75;24.90;;;;;;;-0.53;88.50;99860.19;5063690;28;20032;-70
2020/12/11 03:14:23;;;;;;;37.10;24.98;;;;;;;-0.54;88.85;99845.41;5063015;28;20036;-70
2020/12/11 03:16:48;;;;;;;37.80;25.13;;;;;;;-0.55;88.91;99838.47;5064450;28;20044;-70
2020/12/11 03:19:14;;;;;;;35.75;23.52;;;;;;;-0.58;89.34;99833.44;5063760;28;20418;-70
2020/12/11 03:21:39;;;;;;;37.47;24.60;;;;;;;-0.61;88.93;99834.50;5063326;28;20040;-70
2020/12/11 03:24:05;;;;;;;36.50;24.60;;;;;;;-0.62;89.60;99817.94;5061692;28;20367;-70
2020/12/11 03:26:30;;;;;;;37.25;24.73;;;;;;;-0.53;89.27;99807.75;5062864;28;20128;-70
2020/12/11 03:28:56;;;;;;;33.75;23.63;;;;;;;-0.66;89.01;99784.19;5062931;28;20035;-70
2020/12/11 03:31:21;;;;;;;36.92;24.88;;;;;;;-0.47;89.53;99796.81;5061234;28;20069;-71
2020/12/11 03:33:47;;;;;;;33.35;22.13;;;;;;;-0.44;88.92;99786.13;5062196;28;20407;-70
2020/12/11 03:36:17;;;;;;;35.42;23.38;;;;;;;-0.38;88.94;99782.25;5058302;28;20374;-69
2020/12/11 03:38:43;;;;;;;36.75;22.67;;;;;;;-0.36;88.89;99775.97;5063897;28;20099;-69
2020/12/11 03:41:13;;;;;;;32.90;22.63;;;;;;;-0.28;88.76;99759.69;5044615;28;20043;-69
2020/12/11 03:43:39;;;;;;;32.63;21.42;;;;;;;-0.25;88.20;99754.19;5067043;28;20517;-69
2020/12/11 03:46:04;;;;;;;32.95;21.20;;;;;;;-0.22;88.17;99755.78;5061347;28;20036;-69
2020/12/11 03:48:30;;;;;;;31.20;21.10;;;;;;;-0.18;88.09;99746.72;5046927;28;20036;-69
2020/12/11 03:50:55;;;;;;;31.17;21.98;;;;;;;-0.14;88.00;99748.19;5064185;28;20044;-69
2020/12/11 03:53:21;;;;;;;31.52;21.80;;;;;;;-0.03;87.77;99752.66;5060987;28;20035;-69
2020/12/11 03:55:46;;;;;;;33.22;21.52;;;;;;;-0.15;87.24;99722.91;5055381;28;20446;-69
2020/12/11 03:58:11;;;;;;;30.98;21.67;;;;;;;-0.01;87.49;99738.47;5056344;28;20052;-70
2020/12/11 04:00:37;;;;;;;31.85;20.88;;;;;;;0.05;87.40;99729.31;5063787;28;20485;-71
2020/12/11 04:03:02;;;;;;;30.73;21.40;;;;;;;-0.05;88.14;99731.78;5060958;28;20495;-70
2020/12/11 04:05:28;;;;;;;34.05;21.38;;;;;;;-0.11;87.40;99708.63;5038844;28;20491;-70
2020/12/11 04:07:53;;;;;;;32.05;22.15;;;;;;;0.09;86.50;99717.66;5041970;28;20084;-70
2020/12/11 04:10:19;;;;;;;32.30;21.65;;;;;;;0.13;86.42;99710.38;5060662;28;20032;-70
2020/12/11 04:12:44;;;;;;;31.73;21.70;;;;;;;-0.19;86.45;99662.00;5060166;28;20036;-70
2020/12/11 04:15:10;;;;;;;35.40;22.45;;;;;;;0.12;86.97;99708.72;5061157;28;20489;-70
2020/12/11 04:17:35;;;;;;;29.67;21.13;;;;;;;0.14;86.92;99698.94;5058340;28;20298;-70
2020/12/11 04:20:01;;;;;;;32.58;22.23;;;;;;;0.15;86.35;99690.94;5077269;28;20090;-70
2020/12/11 04:22:26;;;;;;;30.05;21.25;;;;;;;0.11;86.85;99684.28;5059620;28;20266;-70
2020/12/11 04:24:52;;;;;;;33.47;22.58;;;;;;;0.18;86.65;99668.06;5065011;28;20033;-70
2020/12/11 04:27:17;;;;;;;33.08;21.73;;;;;;;0.20;86.47;99661.78;5063789;28;20038;-71
2020/12/11 04:29:43;;;;;;;31.77;21.75;;;;;;;0.22;86.63;99659.84;5064422;28;20032;-70
2020/12/11 04:32:08;;;;;;;29.23;20.20;;;;;;;0.20;86.76;99653.03;5059652;28;20052;-70
2020/12/11 04:34:34;;;;;;;30.88;21.58;;;;;;;0.19;86.18;99651.38;5064014;28;20040;-69
2020/12/11 04:37:00;;;;;;;34.33;22.77;;;;;;;0.12;87.05;99645.75;5060819;28;20082;-70
2020/12/11 04:39:25;;;;;;;31.58;22.00;;;;;;;0.13;87.13;99632.53;5062145;28;20433;-71
2020/12/11 04:41:52;;;;;;;31.90;21.02;;;;;;;0.12;86.36;99628.25;5061585;28;20040;-70
2020/12/11 04:44:17;;;;;;;30.83;21.30;;;;;;;0.09;86.98;99614.50;5038503;28;20090;-70
2020/12/11 04:46:43;;;;;;;29.88;20.67;;;;;;;0.03;87.26;99610.53;5062965;28;20033;-70
2020/12/11 04:49:08;;;;;;;33.45;21.85;;;;;;;-0.06;86.98;99600.75;5046302;28;20040;-70
2020/12/11 04:51:34;;;;;;;33.03;22.13;;;;;;;0.02;86.91;99600.19;5044656;28;20107;-71
2020/12/11 04:54:02;;;;;;;31.67;21.00;;;;;;;-0.03;87.07;99598.72;5060300;28;20644;-70
2020/12/11 04:56:28;;;;;;;34.10;22.50;;;;;;;-0.01;87.35;99598.63;5058203;28;20047;-71
2020/12/11 04:58:54;;;;;;;34.50;22.30;;;;;;;-0.25;87.40;99559.34;5078000;28;20083;-70
2020/12/11 05:01:32;;;;;;;35.47;22.20;;;;;;;-0.13;87.62;99575.91;5061833;28;20049;-70
2020/12/11 05:03:59;;;;;;;34.22;21.10;;;;;;;0.09;87.08;99598.75;5041731;28;20541;-70
2020/12/11 05:06:25;;;;;;;31.52;21.60;;;;;;;0.18;86.85;99594.59;5059399;28;20158;-70
2020/12/11 05:09:13;;;;;;;32.95;21.52;;;;;;;0.19;86.27;99586.63;5061361;28;20122;-71
2020/12/11 05:11:40;;;;;;;32.85;21.65;;;;;;;-0.38;86.55;99489.50;5062166;28;20127;-71
2020/12/11 05:14:19;;;;;;;33.88;22.15;;;;;;;0.06;86.35;99562.28;5063146;28;20140;-69
2020/12/11 05:16:57;;;;;;;35.30;21.63;;;;;;;0.25;86.47;99575.66;5063536;28;20044;-68
2020/12/11 05:19:23;;;;;;;34.28;21.75;;;;;;;0.30;85.47;99573.50;5066938;28;20045;-70
2020/12/11 05:21:48;;;;;;;31.52;20.77;;;;;;;0.33;86.25;99567.19;5066305;28;20041;-69
2020/12/11 05:24:14;;;;;;;30.42;20.42;;;;;;;0.30;85.47;99570.03;5059408;28;20111;-69
2020/12/11 05:26:39;;;;;;;29.30;20.60;;;;;;;0.27;86.03;99554.56;5074020;28;20055;-69
2020/12/11 05:29:05;;;;;;;30.58;21.20;;;;;;;0.23;86.31;99551.31;5063261;28;20049;-68
2020/12/11 05:31:30;;;;;;;32.17;21.45;;;;;;;0.25;85.91;99541.53;5060004;28;20040;-69
2020/12/11 05:34:10;;;;;;;33.72;22.00;;;;;;;0.24;86.76;99547.72;5062969;28;20041;-69
2020/12/11 05:36:54;;;;;;;29.45;21.05;;;;;;;0.25;85.74;99533.66;5062276;28;20127;-70
2020/12/11 05:39:28;;;;;;;30.55;20.60;;;;;;;0.35;86.34;99530.31;5079958;28;20066;-69
2020/12/11 05:41:54;;;;;;;32.42;21.08;;;;;;;0.40;85.52;99523.78;5079101;28;20051;-68
2020/12/11 05:44:23;;;;;;;30.27;20.42;;;;;;;0.45;85.31;99520.78;5063068;28;20668;-68
2020/12/11 05:46:48;;;;;;;29.77;19.80;;;;;;;0.44;85.17;99521.75;5063604;28;20098;-69
2020/12/11 05:49:40;;;;;;;28.60;20.05;;;;;;;0.43;85.12;99504.31;5065097;28;20479;-68
2020/12/11 05:52:11;;;;;;;29.30;20.02;;;;;;;0.45;85.02;99497.16;5058789;28;20088;-69
2020/12/11 05:54:41;;;;;;;31.65;20.15;;;;;;;0.51;85.34;99512.41;5066032;28;20044;-68
2020/12/11 05:57:07;;;;;;;28.48;19.85;;;;;;;0.45;85.14;99499.78;5064691;28;20028;-69
2020/12/11 05:59:32;;;;;;;26.17;18.95;;;;;;;-0.09;84.63;99402.50;5064222;28;20078;-69
2020/12/11 06:01:58;;;;;;;27.05;19.20;;;;;;;0.62;84.53;99508.94;5029801;28;20033;-70
2020/12/11 06:04:24;;;;;;;28.63;19.13;;;;;;;0.66;84.97;99504.28;5064629;28;20028;-70
2020/12/11 06:06:49;;;;;;;31.45;20.45;;;;;;;0.47;84.46;99468.16;5064891;28;20042;-69
2020/12/11 06:09:15;;;;;;;28.23;19.10;;;;;;;0.74;84.32;99507.16;5048143;28;20028;-69
2020/12/11 06:11:46;;;;;;;28.63;19.75;;;;;;;0.77;84.31;99493.75;5029944;28;20048;-70
2020/12/11 06:14:12;;;;;;;26.58;18.58;;;;;;;0.72;84.62;99485.41;5077648;28;20554;-69
2020/12/11 06:16:37;;;;;;;29.00;19.90;;;;;;;0.72;84.36;99491.50;5047417;28;20098;-69
2020/12/11 06:19:02;;;;;;;30.77;20.08;;;;;;;0.75;84.49;99488.63;5050872;28;20037;-69
2020/12/11 06:21:28;;;;;;;27.17;19.73;;;;;;;0.81;83.86;99474.16;5044210;28;20569;-69
2020/12/11 06:23:53;;;;;;;26.38;19.85;;;;;;;0.83;83.85;99477.50;5059054;28;20032;-69
2020/12/11 06:26:19;;;;;;;27.25;19.10;;;;;;;0.77;84.47;99456.97;5064212;28;20284;-68
2020/12/11 06:28:45;;;;;;;32.20;20.35;;;;;;;0.85;84.21;99465.09;5048575;28;20483;-68
2020/12/11 06:31:18;;;;;;;28.38;19.13;;;;;;;0.91;84.18;99469.00;5045804;28;20087;-69
2020/12/11 06:33:51;;;;;;;28.40;19.25;;;;;;;0.85;84.45;99467.72;5062212;28;20462;-70
2020/12/11 06:36:16;;;;;;;27.45;18.50;;;;;;;0.91;83.82;99464.56;5061905;28;20047;-70
2020/12/11 06:38:46;;;;;;;26.35;18.48;;;;;;;0.92;84.08;99468.06;5047598;28;20040;-69
2020/12/11 06:41:12;;;;;;;27.65;19.10;;;;;;;0.79;84.14;99438.50;5061245;28;20043;-69
2020/12/11 06:43:44;;;;;;;28.42;19.85;;;;;;;0.43;84.44;99378.31;5057937;28;20028;-70
2020/12/11 06:46:17;;;;;;;26.67;18.40;;;;;;;0.95;84.38;99451.19;5052443;28;20072;-69
2020/12/11 06:49:14;;;;;;;26.75;19.10;;;;;;;0.96;84.27;99450.25;5063159;28;20514;-69
2020/12/11 06:51:46;;;;;;;27.80;18.73;;;;;;;1.00;84.08;99444.59;5069586;28;20033;-69
2020/12/11 06:54:21;;;;;;;27.27;18.73;;;;;;;1.00;84.20;99443.78;5061177;28;20045;-68
2020/12/11 06:56:51;;;;;;;27.65;19.25;;;;;;;0.63;84.44;99379.34;5061246;28;20044;-68
2020/12/11 06:59:31;;;;;;;27.25;18.55;;;;;;;1.02;84.30;99434.81;5064681;28;20036;-69
2020/12/11 07:02:17;;;;;;;27.75;19.52;;;;;;;1.01;84.47;99429.69;5063515;28;20132;-69
2020/12/11 07:04:48;;;;;;;27.52;19.55;;;;;;;0.99;84.74;99418.47;5044798;28;20051;-69
2020/12/11 07:07:13;;;;;;;28.75;18.85;;;;;;;1.11;84.77;99427.97;5063548;28;20418;-68
2020/12/11 07:09:43;;;;;;;27.45;19.27;;;;;;;0.96;84.64;99395.91;5061981;28;20041;-69
2020/12/11 07:12:12;;;;;;;27.27;19.75;;;;;;;1.14;84.62;99422.47;5053113;28;20090;-69
2020/12/11 07:14:37;;;;;;;26.48;18.83;;;;;;;1.20;84.62;99424.56;5071366;28;20032;-69
2020/12/11 07:17:04;;;;;;;30.48;20.08;;;;;;;1.09;84.74;99403.59;5058617;28;20110;-70
2020/12/11 07:19:38;;;;;;;24.98;18.83;;;;;;;1.24;84.62;99419.88;5049629;28;20127;-69
2020/12/11 07:22:04;;;;;;;29.52;19.23;;;;;;;1.24;84.37;99419.88;5051557;28;20120;-69
2020/12/11 07:24:30;;;;;;;28.15;19.38;;;;;;;1.27;84.46;99408.31;5056708;28;20112;-69
2020/12/11 07:27:05;;;;;;;28.77;19.77;;;;;;;1.35;84.18;99419.84;5056572;28;20044;-69
2020/12/11 07:29:31;;;;;;;33.40;19.40;;;;;;;1.33;84.40;99410.41;5057833;28;20040;-69
2020/12/11 07:31:56;;;;;;;26.98;18.92;;;;;;;1.34;84.16;99412.91;5067619;28;20376;-70
2020/12/11 07:34:23;;;;;;;27.67;19.23;;;;;;;1.36;83.86;99413.59;5055871;28;20502;-69
2020/12/11 07:36:56;;;;;;;25.98;18.48;;;;;;;1.43;84.01;99408.66;5056890;28;20108;-70
2020/12/11 07:39:26;;;;;;;27.92;19.17;;;;;;;1.43;83.86;99410.47;5061834;28;20128;-69
2020/12/11 07:41:56;;;;;;;26.65;17.98;;;;;;;1.30;84.15;99398.34;5040599;28;20028;-69
2020/12/11 07:44:28;;;;;;;27.10;18.83;;;;;;;1.44;83.47;99398.97;5054487;28;20055;-69
2020/12/11 07:46:54;;;;;;;27.02;18.73;;;;;;;1.51;83.21;99400.97;5040830;28;20052;-69
2020/12/11 07:49:20;;;;;;;25.35;18.30;;;;;;;1.51;83.48;99406.22;5060525;28;20033;-69
2020/12/11 07:51:49;;;;;;;25.55;18.02;;;;;;;1.46;83.18;99381.28;5060074;28;20032;-70
2020/12/11 07:54:15;;;;;;;23.38;17.42;;;;;;;1.49;83.46;99395.00;5039695;28;20119;-70
2020/12/11 07:56:41;;;;;;;25.88;18.70;;;;;;;1.47;83.73;99389.03;5062550;28;20040;-70
2020/12/11 07:59:10;;;;;;;27.55;19.73;;;;;;;1.51;83.58;99395.72;5057586;28;20040;-70
2020/12/11 08:01:36;;;;;;;26.35;18.55;;;;;;;1.52;83.53;99392.13;5058159;28;20117;-69
2020/12/11 08:04:02;;;;;;;25.80;18.40;;;;;;;1.41;83.30;99371.16;5021337;28;20037;-70
2020/12/11 08:06:27;;;;;;;26.52;18.50;;;;;;;0.83;83.30;99283.16;5058772;28;20455;-71
2020/12/11 08:08:53;;;;;;;26.67;19.48;;;;;;;1.49;83.69;99384.47;5042664;28;20044;-70
2020/12/11 08:11:25;;;;;;;25.67;18.63;;;;;;;1.51;83.66;99384.34;5057389;28;20117;-70
2020/12/11 08:14:01;;;;;;;27.60;18.88;;;;;;;1.55;83.77;99377.88;5055848;28;20040;-70
2020/12/11 08:16:27;;;;;;;25.48;19.05;;;;;;;1.52;83.91;99376.34;5056745;28;20066;-70
2020/12/11 08:18:53;;;;;;;29.20;19.35;;;;;;;1.38;84.02;99359.09;5059330;28;20311;-70
2020/12/11 08:21:28;;;;;;;30.10;20.10;;;;;;;1.39;84.20;99357.31;5065470;28;20466;-69
2020/12/11 08:23:53;;;;;;;26.88;19.13;;;;;;;1.49;83.97;99358.19;5052366;28;20072;-69
2020/12/11 08:26:19;;;;;;;27.73;19.05;;;;;;;1.44;83.45;99349.84;5054293;28;20328;-69
2020/12/11 08:28:49;;;;;;;27.45;19.27;;;;;;;1.59;83.83;99373.19;5056368;28;20719;-70
2020/12/11 08:31:22;;;;;;;23.88;18.05;;;;;;;1.59;83.73;99360.03;5038509;28;20482;-70
2020/12/11 08:33:49;;;;;;;28.35;19.15;;;;;;;1.47;84.06;99346.16;5050015;28;20439;-70
2020/12/11 08:36:22;;;;;;;25.02;18.73;;;;;;;1.65;84.07;99360.34;5035727;28;20055;-70
2020/12/11 08:39:06;;;;;;;25.15;18.52;;;;;;;1.68;83.94;99362.72;5054798;28;20337;-71
2020/12/11 08:41:35;;;;;;;25.63;17.70;;;;;;;1.77;83.90;99362.88;5052782;28;20029;-69
2020/12/11 08:44:03;;;;;;;30.02;20.15;;;;;;;1.68;84.10;99361.88;5037281;28;20036;-71
2020/12/11 08:46:46;;;;;;;26.30;19.30;;;;;;;1.74;84.41;99358.72;5056676;28;20044;-69
2020/12/11 08:51:40;;;;;;;;;;;;;;;1.70;84.38;99359.94;5070734;28;20072;-71
2020/12/11 08:54:08;;;;;;;28.08;19.33;;;;;;;1.68;84.45;99356.63;5055076;28;21129;-69
2020/12/11 08:56:33;;;;;;;27.73;19.63;;;;;;;1.67;85.39;99344.44;5055546;28;20953;-69
2020/12/11 08:58:59;;;;;;;28.05;20.02;;;;;;;1.73;85.37;99349.16;5052660;28;20036;-69
2020/12/11 09:01:24;;;;;;;28.23;19.45;;;;;;;1.81;84.77;99351.97;5053529;28;20826;-70
2020/12/11 09:04:08;;;;;;;28.50;19.85;;;;;;;1.79;85.09;99347.78;5049503;28;20052;-70
2020/12/11 09:06:34;;;;;;;28.52;20.55;;;;;;;1.77;84.62;99341.81;5056241;28;20057;-69
2020/12/11 09:09:01;;;;;;;26.98;20.15;;;;;;;1.79;84.88;99338.13;5042190;28;20051;-69
2020/12/11 09:11:26;;;;;;;29.40;20.52;;;;;;;1.81;84.77;99337.97;5056756;28;20040;-69
2020/12/11 09:13:52;;;;;;;27.15;20.00;;;;;;;1.77;84.53;99333.94;5041482;28;20076;-69
2020/12/11 09:16:17;;;;;;;30.02;20.15;;;;;;;1.87;84.49;99337.44;5053640;28;20511;-69
2020/12/11 09:18:43;;;;;;;28.20;19.60;;;;;;;1.90;84.79;99333.72;5060515;28;20040;-69
2020/12/11 09:21:08;;;;;;;28.30;19.90;;;;;;;1.84;84.68;99338.53;5055695;28;20032;-69
2020/12/11 09:23:34;;;;;;;28.00;19.88;;;;;;;1.87;84.81;99337.44;5052552;28;20040;-68
2020/12/11 09:25:59;;;;;;;28.40;19.73;;;;;;;1.61;84.71;99293.22;5051382;28;20542;-70
2020/12/11 09:28:25;;;;;;;29.85;20.80;;;;;;;1.93;84.53;99330.81;5050726;28;20448;-70
2020/12/11 09:30:51;;;;;;;26.50;18.90;;;;;;;1.95;84.38;99328.88;5058555;28;20052;-70
2020/12/11 09:33:18;;;;;;;27.25;19.90;;;;;;;1.93;84.62;99331.63;5050172;28;20084;-70
2020/12/11 09:35:44;;;;;;;27.50;19.75;;;;;;;2.05;84.35;99332.38;5045792;28;20049;-70
2020/12/11 09:38:10;;;;;;;28.45;19.38;;;;;;;2.09;84.41;99325.88;5057191;28;20068;-70
2020/12/11 09:48:25;;;;;;;;;;;;;;;2.24;84.17;99323.66;5062449;28;20090;-71
2020/12/11 09:56:03;;;;;;;25.17;18.48;;;;;;;2.33;83.35;99311.50;5062791;28;20044;-71
2020/12/11 09:58:29;;;;;;;26.85;19.42;;;;;;;2.37;83.27;99317.31;5060522;28;20112;-71
2020/12/11 10:00:55;;;;;;;27.50;18.48;;;;;;;2.41;83.06;99316.06;5062191;28;20021;-73
2020/12/11 10:03:30;;;;;;;24.90;18.10;;;;;;;2.17;83.34;99279.59;5077748;28;20040;-70
2020/12/11 10:05:56;;;;;;;25.05;18.08;;;;;;;2.43;83.10;99316.75;5062173;28;20175;-71
2020/12/11 10:08:21;;;;;;;26.10;18.75;;;;;;;2.35;83.39;99306.06;5062294;28;21040;-72
2020/12/11 10:10:47;;;;;;;24.83;18.02;;;;;;;2.40;83.03;99312.59;5060147;28;20028;-71
2020/12/11 10:13:12;;;;;;;27.30;18.48;;;;;;;2.20;83.36;99268.81;5059872;28;20069;-71
2020/12/11 10:15:38;;;;;;;26.80;19.20;;;;;;;2.39;83.56;99305.66;5055198;28;20044;-72
2020/12/11 10:18:05;;;;;;;24.42;17.77;;;;;;;2.37;83.12;99298.88;5060439;28;20557;-71
2020/12/11 10:20:31;;;;;;;26.65;19.85;;;;;;;2.38;83.12;99290.81;5041635;28;20033;-71
2020/12/11 10:22:57;;;;;;;24.55;17.75;;;;;;;2.11;83.43;99238.88;5042490;28;20024;-71
2020/12/11 10:25:22;;;;;;;28.00;19.52;;;;;;;2.42;83.63;99272.97;5055652;28;20493;-71
2020/12/11 10:27:48;;;;;;;24.10;18.48;;;;;;;2.45;83.56;99286.69;5054442;28;20040;-71
2020/12/11 10:30:14;;;;;;;27.45;18.20;;;;;;;2.54;82.91;99281.53;5052336;28;20048;-72
2020/12/11 10:32:39;;;;;;;25.27;17.42;;;;;;;2.60;82.78;99281.81;5050314;28;20064;-72
2020/12/11 10:35:05;;;;;;;24.65;17.83;;;;;;;2.57;83.61;99268.94;5039279;28;20021;-71
2020/12/11 10:37:31;;;;;;;25.50;18.35;;;;;;;2.57;83.69;99270.72;5055479;28;20719;-72
2020/12/11 10:39:57;;;;;;;23.58;18.50;;;;;;;2.61;84.17;99272.13;5059817;28;20178;-71
2020/12/11 10:42:23;;;;;;;27.25;19.52;;;;;;;2.53;84.88;99266.72;5055384;28;20130;-72
2020/12/11 10:44:49;;;;;;;28.23;20.38;;;;;;;2.56;85.50;99271.69;5054929;28;20278;-71
2020/12/11 10:47:14;;;;;;;26.88;20.13;;;;;;;2.56;85.54;99255.91;5057795;28;20047;-70
2020/12/11 10:49:40;;;;;;;28.33;20.73;;;;;;;2.42;86.54;99246.63;5052694;28;20491;-71
2020/12/11 10:52:06;;;;;;;28.08;20.92;;;;;;;2.50;86.69;99256.47;5069647;28;21319;-71
2020/12/11 10:54:31;;;;;;;29.95;20.98;;;;;;;2.33;87.44;99231.66;5038023;28;20044;-71
2020/12/11 10:56:57;;;;;;;33.20;22.05;;;;;;;1.57;87.99;99118.25;5059515;28;20140;-70
2020/12/11 10:59:22;;;;;;;33.17;21.55;;;;;;;1.93;87.67;99163.25;5062990;28;20082;-72
2020/12/11 11:01:49;;;;;;;31.80;21.70;;;;;;;1.90;88.16;99160.88;5060640;28;20494;-71
2020/12/11 11:04:15;;;;;;;29.98;20.75;;;;;;;2.41;88.39;99234.44;5062698;28;20043;-71
2020/12/11 11:06:45;;;;;;;33.92;22.60;;;;;;;2.41;88.81;99234.44;5061969;28;20041;-71
2020/12/11 11:09:18;;;;;;;32.45;22.83;;;;;;;2.45;88.88;99231.38;5065735;28;20848;-71
2020/12/11 11:11:50;;;;;;;34.97;22.58;;;;;;;2.44;89.23;99227.09;5062245;28;20036;-70
2020/12/11 11:19:53;;;;;;;35.60;24.73;;;;;;;2.37;90.28;99204.09;5062548;28;20102;-71
2020/12/11 11:30:02;;;;;;;35.03;23.87;;;;;;;2.43;90.76;99201.72;5062873;28;20037;-73
2020/12/11 11:32:28;;;;;;;35.55;23.00;;;;;;;2.47;91.07;99199.63;5045138;28;20513;-71
2020/12/11 11:34:53;;;;;;;35.35;23.38;;;;;;;2.44;90.39;99187.59;5064113;28;20550;-74
2020/12/11 11:37:21;;;;;;;30.77;22.58;;;;;;;2.44;90.86;99192.84;5044346;28;20568;-69
2020/12/11 11:39:48;;;;;;;35.17;22.77;;;;;;;2.47;91.33;99193.56;5061705;28;20033;-71
2020/12/11 11:42:13;;;;;;;34.65;24.08;;;;;;;2.45;91.08;99178.72;5063481;28;20570;-70
2020/12/11 11:44:54;;;;;;;34.80;23.65;;;;;;;2.54;91.14;99184.09;5062021;28;20083;-69
2020/12/11 11:47:21;;;;;;;30.73;22.05;;;;;;;2.54;91.17;99179.69;5081926;28;20398;-70
2020/12/11 11:52:26;;;;;;;33.67;22.80;;;;;;;2.55;91.62;99178.72;5066448;28;20099;-71